createdAt,value
2023-03-24T16:26:48.187Z,990.87
2023-03-24T16:31:48.233Z,990.92
2023-03-24T16:36:47.986Z,990.74
2023-03-24T16:41:47.921Z,990.99
2023-03-24T16:46:47.873Z,990.91
2023-03-24T16:51:47.812Z,990.92
2023-03-24T16:56:47.770Z,990.81
2023-03-24T17:01:47.718Z,990.54
2023-03-24T17:06:47.581Z,990.80
2023-03-24T17:11:47.514Z,990.97
2023-03-24T17:16:47.450Z,990.82
2023-03-24T17:21:47.382Z,991.11
2023-03-24T17:26:47.317Z,991.11
2023-03-24T17:31:47.305Z,991.06
2023-03-24T17:36:47.182Z,991.18
2023-03-24T17:41:47.150Z,991.02
2023-03-24T17:46:47.096Z,991.15
2023-03-24T17:51:46.980Z,991.11
2023-03-24T17:56:46.928Z,991.25
2023-03-24T18:01:46.837Z,991.40
2023-03-24T18:06:46.775Z,991.37
2023-03-24T18:11:47.783Z,991.50
2023-03-24T18:16:46.660Z,991.52
2023-03-24T18:21:46.571Z,991.48
2023-03-24T18:26:47.370Z,991.51
2023-03-24T18:31:46.459Z,991.45
2023-03-24T18:36:46.369Z,991.61
2023-03-24T18:41:46.303Z,991.69
2023-03-24T18:46:46.237Z,991.64
2023-03-24T18:51:46.177Z,991.75
2023-03-24T18:56:46.185Z,991.70
2023-03-24T19:01:46.359Z,991.68
2023-03-24T19:06:46.116Z,991.79
2023-03-24T19:11:46.033Z,991.92
2023-03-24T19:16:45.853Z,991.94
2023-03-24T19:21:45.795Z,991.92
2023-03-24T19:26:45.761Z,991.91
2023-03-24T19:31:45.641Z,991.91
2023-03-24T19:36:47.666Z,991.97
2023-03-24T19:41:45.576Z,992.02
2023-03-24T19:46:45.510Z,991.97
2023-03-24T19:51:45.376Z,991.95
2023-03-24T19:56:45.327Z,991.96
2023-03-24T20:01:45.279Z,991.97
2023-03-24T20:06:45.189Z,991.92
2023-03-24T20:11:45.155Z,991.87
2023-03-24T20:16:45.088Z,991.91
2023-03-24T20:21:44.993Z,991.92
2023-03-24T20:26:46.506Z,991.94
2023-03-24T20:31:44.917Z,991.90
2023-03-24T20:36:44.784Z,991.97
2023-03-24T20:41:44.710Z,991.97
2023-03-24T20:46:45.981Z,992.19
2023-03-24T20:51:44.589Z,992.02
2023-03-24T20:56:44.570Z,992.05
2023-03-24T21:01:44.452Z,991.96
2023-03-24T21:06:44.390Z,992.08
2023-03-24T21:11:44.307Z,992.09
2023-03-24T21:16:44.296Z,992.09
2023-03-24T21:21:44.189Z,992.11
2023-03-24T21:26:44.116Z,992.12
2023-03-24T21:31:44.049Z,992.14
2023-03-24T21:36:43.984Z,992.03
2023-03-24T21:41:43.911Z,991.94
2023-03-24T21:46:43.852Z,992.00
2023-03-24T21:51:43.821Z,992.02
2023-03-24T21:56:43.765Z,992.18
2023-03-24T22:01:43.681Z,992.12
2023-03-24T22:06:43.583Z,992.28
2023-03-24T22:11:43.513Z,992.29
2023-03-24T22:16:43.513Z,992.30
2023-03-24T22:21:43.386Z,992.15
2023-03-24T22:26:43.319Z,992.15
2023-03-24T22:31:43.259Z,992.05
2023-03-24T22:36:43.192Z,992.04
2023-03-24T22:41:43.157Z,992.22
2023-03-24T22:46:43.147Z,991.98
2023-03-24T22:51:43.054Z,992.04
2023-03-24T22:56:42.990Z,991.99
2023-03-24T23:01:42.951Z,991.94
2023-03-24T23:06:42.831Z,991.98
2023-03-24T23:11:42.761Z,992.01
2023-03-24T23:16:42.763Z,992.08
2023-03-24T23:21:42.635Z,992.19
2023-03-24T23:26:42.565Z,992.05
2023-03-24T23:31:42.526Z,992.02
2023-03-24T23:36:42.420Z,992.10
2023-03-24T23:41:42.357Z,992.03
2023-03-24T23:46:42.298Z,992.03
2023-03-24T23:51:42.223Z,992.03
2023-03-24T23:56:42.214Z,992.07
